Carmel-by-the-Sea, CA (93921)

3:16 PM PDT on October 31, 2014 (GMT -0700)
Downtown Carmel | Change Station
CLOSE
Current Station
Personal Weather Station
Location: Carmel-by-the-Sea, CA
Elevation: 230 ft
Nearby Weather Stations

Elev 230 ft 36.55 °N, 121.92 °W | Updated 0 second ago

Rain
Rain
57.9 °F
Feels Like 57.9 °F
N
2.0
Wind Variable Wind from WSW
Gusts 6.0 mph

Today
High -- | Low -- °F
--% Chance of Precip.
Yesterday
High -- | Low -- °F
Precip. -- in
7:30 AM 6:11 PM
First Quarter, 59% visible
Pressure 29.82 in
Visibility 1.8 miles
Clouds Few 900 ft
Mostly Cloudy 3400 ft
Overcast 5500 ft
Dew Point 57 °F
Humidity 97%
Rainfall 0.60 in
Snow Depth Not available.
UV 1 out of 12
Pollen .50 out of 12
Air Quality Not available.
Flu Activity Not available.
SPECI KMRY 312206Z 26007KT 1 3/4SM RA BR FEW009 BKN034 OVC055 15/14 A2982 RMK AO2 P0008

More Conditions Fewer Conditions

Pressure 29.82 in
Visibility 1.8 miles
Clouds Few 900 ft
Mostly Cloudy 3400 ft
Overcast 5500 ft
Dew Point 57 °F
Humidity 97%
Rainfall 0.60 in
Snow Depth Not available.
UV 1 out of 12
Pollen .50 out of 12
Air Quality Not available.
Flu Activity Not available.
SPECI KMRY 312206Z 26007KT 1 3/4SM RA BR FEW009 BKN034 OVC055 15/14 A2982 RMK AO2 P0008

More Conditions Fewer Conditions

10-Day Weather Forecast

Almanac

Astronomy

Oct. 31, 2014 Rise Set
Actual Time
Civil Twilight
Nautical Twilight
Astronomical Twilight
Moon
Length of Visible Light
Length of Day
Tomorrow will be .
, % of the Moon is Illuminated

Today's Extremes

State Highs State Lows

Community

WunderPhotos

Upload Photos

1,766,757 photos uploaded!

WunderBlogs® & News

Nearby

Air Quality

  Air Quality AQ Index Pollutant
Not available.

Snow Depth

Station Depth Elevation

Earthquake Activity

City Distance Mag. Time & Date
Minimum magnitude displayed is 2.5.

Coastal Water Temperatures

Place Temperature

Nearby Weather Stations